createdAt,value
2023-04-26T00:01:56.448Z,9.16
2023-04-26T00:04:23.046Z,9.30
2023-04-26T00:06:49.691Z,9.35
2023-04-26T00:09:17.487Z,9.37
2023-04-26T00:11:43.960Z,9.42
2023-04-26T00:14:10.450Z,9.26
2023-04-26T00:16:36.977Z,9.51
2023-04-26T00:19:03.443Z,9.78
2023-04-26T00:21:29.985Z,9.74
2023-04-26T00:23:56.431Z,9.81
2023-04-26T00:26:24.316Z,9.67
2023-04-26T00:28:50.983Z,9.65
2023-04-26T00:31:17.619Z,9.67
2023-04-26T00:33:44.070Z,9.59
2023-04-26T00:36:10.530Z,9.44
2023-04-26T00:38:37.036Z,9.45
2023-04-26T00:41:03.502Z,9.51
2023-04-26T00:43:31.303Z,9.66
2023-04-26T00:45:57.785Z,9.58
2023-04-26T00:48:24.357Z,9.58
2023-04-26T00:50:50.796Z,9.67
2023-04-26T00:53:17.319Z,9.46
2023-04-26T00:55:43.813Z,9.22
2023-04-26T00:58:10.393Z,9.17
2023-04-26T01:00:38.193Z,9.16
2023-04-26T01:03:04.762Z,9.28
2023-04-26T01:05:31.307Z,9.08
2023-04-26T01:07:57.816Z,8.78
2023-04-26T01:10:24.391Z,9.00
2023-04-26T01:12:50.802Z,8.80
2023-04-26T01:15:17.224Z,8.92
2023-04-26T01:17:47.506Z,8.61
2023-04-26T01:20:14.090Z,8.68
2023-04-26T01:22:41.968Z,8.69
2023-04-26T01:25:08.676Z,8.10
2023-04-26T01:27:35.115Z,8.03
2023-04-26T01:30:01.578Z,8.36
2023-04-26T01:32:28.126Z,8.47
2023-04-26T01:34:54.622Z,8.17
2023-04-26T01:37:21.107Z,8.03
2023-04-26T01:39:48.924Z,8.17
2023-04-26T01:42:15.394Z,8.41
2023-04-26T01:44:41.824Z,8.38
2023-04-26T01:47:08.351Z,8.42
2023-04-26T01:49:34.794Z,8.51
2023-04-26T01:52:01.404Z,8.29
2023-04-26T01:54:27.850Z,8.29
2023-04-26T01:56:55.651Z,8.17
2023-04-26T01:59:22.154Z,7.98
2023-04-26T02:01:48.635Z,8.15
2023-04-26T02:04:15.093Z,8.26
2023-04-26T02:06:41.500Z,8.25
2023-04-26T02:09:08.066Z,7.98
2023-04-26T02:11:34.530Z,8.20
2023-04-26T02:14:02.340Z,7.91
2023-04-26T02:16:28.930Z,8.11
2023-04-26T02:18:55.506Z,8.30
2023-04-26T02:21:22.482Z,8.51
2023-04-26T02:23:48.936Z,8.62
2023-04-26T02:26:15.418Z,8.72
2023-04-26T02:28:41.886Z,8.65
2023-04-26T02:31:09.827Z,8.73
2023-04-26T02:33:36.330Z,8.36
2023-04-26T02:36:03.176Z,8.49
2023-04-26T02:38:29.601Z,8.61
2023-04-26T02:40:58.371Z,8.53
2023-04-26T02:43:24.857Z,8.67
2023-04-26T02:45:51.297Z,8.58
2023-04-26T02:48:19.122Z,8.57
2023-04-26T02:50:46.256Z,8.61
2023-04-26T02:53:12.716Z,8.50
2023-04-26T02:55:39.255Z,8.30
2023-04-26T02:58:05.738Z,8.32
2023-04-26T03:00:32.221Z,8.11
2023-04-26T03:02:58.770Z,8.29
2023-04-26T03:05:26.731Z,8.11
2023-04-26T03:07:53.182Z,7.73
2023-04-26T03:10:19.642Z,7.35
2023-04-26T03:12:46.129Z,7.49
2023-04-26T03:15:12.575Z,7.27
2023-04-26T03:17:39.196Z,7.53
2023-04-26T03:20:06.185Z,7.64
2023-04-26T03:22:33.792Z,7.95
2023-04-26T03:25:01.660Z,8.12
2023-04-26T03:27:28.208Z,8.11
2023-04-26T03:29:54.689Z,8.19
2023-04-26T03:32:21.110Z,8.13
2023-04-26T03:34:47.577Z,8.30
2023-04-26T03:37:14.046Z,8.35
2023-04-26T03:39:40.491Z,8.44
2023-04-26T03:42:08.334Z,8.39
2023-04-26T03:44:34.892Z,8.40
2023-04-26T03:47:01.347Z,8.61
2023-04-26T03:49:27.782Z,8.51
2023-04-26T03:51:54.293Z,8.67
2023-04-26T03:54:20.727Z,8.72
2023-04-26T03:56:47.264Z,8.62
2023-04-26T03:59:15.055Z,8.71
2023-04-26T04:01:41.510Z,8.76
2023-04-26T04:04:08.243Z,8.81
2023-04-26T04:06:35.016Z,9.03
2023-04-26T04:09:01.471Z,8.66
2023-04-26T04:11:27.955Z,8.63
2023-04-26T04:13:54.417Z,8.41
2023-04-26T04:16:22.345Z,8.60
2023-04-26T04:18:48.824Z,8.99
2023-04-26T04:21:15.279Z,8.89
2023-04-26T04:23:41.733Z,8.94
2023-04-26T04:26:08.186Z,9.04
2023-04-26T04:28:34.799Z,8.96
2023-04-26T04:31:01.253Z,8.74
2023-04-26T04:33:29.171Z,8.91
2023-04-26T04:35:55.666Z,8.89
2023-04-26T04:38:22.113Z,9.00
2023-04-26T04:40:48.599Z,9.03
2023-04-26T04:43:15.065Z,9.02
2023-04-26T04:45:41.480Z,8.94
2023-04-26T04:48:08.050Z,8.97
2023-04-26T04:50:35.885Z,8.48
2023-04-26T04:53:02.651Z,8.19
2023-04-26T04:55:29.142Z,8.51
2023-04-26T04:57:55.564Z,8.43
2023-04-26T05:00:22.009Z,8.33
2023-04-26T05:02:48.605Z,8.07
2023-04-26T05:05:15.216Z,7.68
2023-04-26T05:07:43.125Z,7.77
2023-04-26T05:10:10.123Z,7.76
2023-04-26T05:12:36.555Z,8.25
2023-04-26T05:15:03.172Z,8.53
2023-04-26T05:17:29.673Z,8.72
2023-04-26T05:19:56.104Z,8.78
2023-04-26T05:22:22.558Z,8.98
2023-04-26T05:24:50.372Z,9.17
2023-04-26T05:27:16.849Z,9.23
2023-04-26T05:29:43.313Z,9.32
2023-04-26T05:32:09.857Z,9.34
2023-04-26T05:34:36.511Z,9.21
2023-04-26T05:37:03.001Z,9.13
2023-04-26T05:39:29.458Z,9.27
2023-04-26T05:41:57.271Z,9.43
2023-04-26T05:44:23.742Z,9.52
2023-04-26T05:46:50.242Z,9.53
2023-04-26T05:49:16.701Z,9.76
2023-04-26T05:51:43.142Z,10.05
2023-04-26T05:54:09.549Z,10.34
2023-04-26T05:56:36.094Z,10.01
2023-04-26T05:59:03.904Z,10.03
2023-04-26T06:01:30.648Z,9.92
2023-04-26T06:03:59.880Z,10.10
2023-04-26T06:06:27.354Z,10.24
2023-04-26T06:08:53.769Z,10.23
2023-04-26T06:11:20.296Z,10.62
2023-04-26T06:13:46.714Z,10.53
2023-04-26T06:16:14.651Z,10.24
2023-04-26T06:18:41.357Z,10.18
2023-04-26T06:21:07.842Z,10.26
2023-04-26T06:23:34.344Z,9.93
2023-04-26T06:26:00.816Z,10.12
2023-04-26T06:28:27.360Z,10.44
2023-04-26T06:30:53.815Z,10.60
2023-04-26T06:33:21.659Z,10.68
2023-04-26T06:35:48.129Z,10.66
2023-04-26T06:38:14.605Z,10.83
2023-04-26T06:40:41.024Z,10.93
2023-04-26T06:43:07.566Z,11.17
2023-04-26T06:45:34.078Z,11.03
2023-04-26T06:48:00.612Z,10.42
2023-04-26T06:50:28.571Z,10.52
2023-04-26T06:52:55.040Z,11.18
2023-04-26T06:55:21.615Z,11.33
2023-04-26T06:57:48.067Z,11.04
2023-04-26T07:00:14.888Z,9.84
2023-04-26T07:02:41.459Z,9.98
2023-04-26T07:05:08.403Z,10.78
2023-04-26T07:07:36.317Z,10.71
2023-04-26T07:10:02.798Z,9.96
2023-04-26T07:12:29.225Z,9.99
2023-04-26T07:14:55.780Z,10.38
2023-04-26T07:17:22.212Z,10.38
2023-04-26T07:19:48.668Z,9.72
2023-04-26T07:22:15.108Z,9.72
2023-04-26T07:24:42.913Z,9.92
2023-04-26T07:27:09.393Z,10.00
2023-04-26T07:29:35.850Z,10.11
2023-04-26T07:32:02.342Z,10.08
2023-04-26T07:34:28.840Z,10.28
2023-04-26T07:36:55.254Z,10.46
2023-04-26T07:39:21.694Z,10.50
2023-04-26T07:41:49.534Z,10.56
2023-04-26T07:44:15.961Z,10.45
2023-04-26T07:46:42.375Z,10.39
2023-04-26T07:49:08.873Z,10.82
2023-04-26T07:51:35.578Z,11.30
2023-04-26T07:54:02.008Z,10.88
2023-04-26T07:56:28.488Z,11.48
2023-04-26T07:58:56.308Z,12.04
2023-04-26T08:01:22.802Z,11.19
2023-04-26T08:03:49.562Z,11.21
2023-04-26T08:06:19.463Z,11.25
2023-04-26T08:11:42.872Z,11.04
2023-04-26T08:14:10.716Z,11.73
2023-04-26T08:16:37.224Z,11.62
2023-04-26T08:19:03.684Z,11.52
2023-04-26T08:21:30.175Z,12.16
2023-04-26T08:23:56.604Z,12.26
2023-04-26T08:26:23.044Z,12.92
2023-04-26T08:28:49.495Z,12.46
2023-04-26T08:31:17.830Z,11.68
2023-04-26T08:33:44.382Z,11.62
2023-04-26T08:36:10.964Z,12.25
2023-04-26T08:38:37.443Z,12.77
2023-04-26T08:41:03.934Z,12.14
2023-04-26T08:43:30.381Z,12.78
2023-04-26T08:45:57.050Z,13.36
2023-04-26T08:48:27.563Z,14.10
2023-04-26T08:50:54.087Z,14.29
2023-04-26T08:53:20.489Z,13.00
2023-04-26T08:55:47.549Z,12.00
2023-04-26T08:58:14.003Z,12.08
2023-04-26T09:00:40.457Z,12.12
2023-04-26T09:03:07.070Z,12.80
2023-04-26T09:05:35.031Z,12.38
2023-04-26T09:08:01.544Z,12.78
2023-04-26T09:10:27.983Z,12.35
2023-04-26T09:12:54.609Z,12.85
2023-04-26T09:15:21.328Z,12.84
2023-04-26T09:17:47.806Z,12.81
2023-04-26T09:20:18.352Z,12.58
2023-04-26T09:22:46.255Z,12.92
2023-04-26T09:25:13.071Z,13.07
2023-04-26T09:27:39.965Z,12.79
2023-04-26T09:30:07.999Z,12.65
2023-04-26T09:32:52.407Z,13.08
2023-04-26T09:35:21.302Z,12.89
2023-04-26T09:37:59.378Z,13.62
2023-04-26T09:40:28.689Z,14.11
2023-04-26T09:43:01.820Z,13.64
2023-04-26T09:45:28.549Z,12.35
2023-04-26T09:47:55.055Z,12.08
2023-04-26T09:50:30.878Z,11.69
2023-04-26T09:52:58.681Z,11.98
2023-04-26T09:55:34.819Z,11.20
2023-04-26T09:58:07.890Z,11.14
2023-04-26T10:00:34.427Z,12.26
2023-04-26T10:03:00.988Z,12.68
2023-04-26T10:05:27.515Z,13.89
2023-04-26T10:07:53.966Z,13.86
2023-04-26T10:10:21.770Z,13.83
2023-04-26T10:12:48.238Z,13.88
2023-04-26T10:15:14.674Z,14.21
2023-04-26T10:17:41.336Z,14.00
2023-04-26T10:20:10.481Z,14.08
2023-04-26T11:43:59.385Z,15.12
2023-04-26T11:46:25.949Z,15.50
2023-04-26T11:48:52.697Z,15.19
2023-04-26T11:51:19.360Z,14.46
2023-04-26T11:53:45.777Z,14.95
2023-04-26T11:56:15.325Z,15.63
2023-04-26T12:05:14.301Z,15.38
2023-04-26T12:07:50.498Z,15.74
2023-04-26T13:07:11.812Z,14.90
2023-04-26T13:09:38.296Z,15.36
2023-04-26T13:12:04.845Z,15.83
2023-04-26T13:14:31.286Z,16.15
2023-04-26T13:16:57.726Z,16.45
2023-04-26T13:53:04.655Z,16.69
2023-04-26T13:55:31.124Z,17.17
2023-04-26T14:58:25.541Z,16.42
2023-04-26T15:00:52.728Z,15.82
2023-04-26T15:03:19.792Z,15.60
2023-04-26T15:45:06.003Z,16.71
2023-04-26T17:33:33.055Z,13.87
2023-04-26T17:35:59.546Z,13.93
2023-04-26T17:38:28.096Z,14.51
2023-04-26T17:40:57.112Z,14.40
2023-04-26T17:43:23.563Z,13.89
2023-04-26T17:45:50.158Z,13.81
2023-04-26T17:48:16.627Z,13.94
2023-04-26T17:50:46.884Z,14.02
2023-04-26T17:53:18.590Z,13.95
2023-04-26T17:55:45.349Z,13.42
2023-04-26T17:58:12.109Z,13.28
2023-04-26T18:00:41.746Z,13.79
2023-04-26T18:26:19.145Z,13.55
2023-04-26T18:28:45.685Z,13.63
2023-04-26T18:31:24.775Z,13.15
2023-04-26T18:33:54.107Z,12.94
2023-04-26T18:36:22.890Z,13.16
2023-04-26T18:38:49.368Z,13.21
2023-04-26T18:41:15.818Z,13.11
2023-04-26T18:43:46.785Z,13.32
2023-04-26T18:46:16.508Z,13.36
2023-04-26T18:49:02.577Z,13.20
2023-04-26T18:51:28.988Z,13.19
2023-04-26T18:53:55.441Z,13.29
2023-04-26T19:27:36.616Z,12.59
2023-04-26T19:30:26.671Z,12.51
2023-04-26T19:32:55.799Z,12.53
2023-04-26T19:35:22.247Z,12.48
2023-04-26T19:37:48.665Z,12.37
2023-04-26T19:40:15.586Z,12.49
2023-04-26T19:42:43.382Z,12.65
2023-04-26T19:45:15.737Z,12.58
2023-04-26T19:47:42.209Z,12.43
2023-04-26T19:50:21.769Z,12.42
2023-04-26T19:52:51.287Z,12.51
2023-04-26T19:55:17.856Z,12.46
2023-04-26T19:57:45.694Z,12.30
2023-04-26T20:00:12.767Z,12.31
2023-04-26T20:02:39.330Z,12.35
2023-04-26T20:05:08.992Z,12.27
2023-04-26T20:07:35.440Z,12.20
2023-04-26T20:10:01.980Z,12.14
2023-04-26T20:12:28.426Z,12.15
2023-04-26T20:14:56.499Z,12.32
2023-04-26T20:17:23.000Z,12.39
2023-04-26T20:19:49.495Z,12.25
2023-04-26T20:22:18.978Z,12.22
2023-04-26T20:24:51.240Z,12.18
2023-04-26T20:27:23.366Z,12.20
2023-04-26T20:29:50.029Z,12.19
2023-04-26T20:32:31.343Z,12.16
2023-04-26T20:34:57.883Z,12.15
2023-04-26T20:37:27.176Z,12.21
2023-04-26T20:39:58.153Z,12.13
2023-04-26T21:08:20.764Z,12.11
2023-04-26T21:41:18.119Z,11.97
2023-04-26T21:59:19.330Z,11.87
2023-04-26T22:39:41.380Z,11.54
2023-04-26T22:51:28.516Z,11.52
2023-04-26T23:51:13.136Z,10.69
